Terminal Aerodrome Forecast
Issued by NWS

Home | Current Version | Previous Version | Text Only | Print | Product List | Glossary On
Versions: 1 2 3 4 5 6 7 8 9 10 11 12 13 14 15 16 17 18
000
FTUS45 KSLC 250325 AAD
TAF36U
TAF AMD
K36U 250325Z 2503/2524 18014G24KT P6SM -RA VCTS SCT020CB BKN070
     FM250430 23010KT P6SM VCSH SCT040 BKN080
     FM250600 VRB05KT P6SM SCT060 BKN080
     FM251900 25011KT P6SM SCT120=

USA.gov is the U.S. government's official web portal to all federal, state and local government web resources and services.